sensor_id;sensor_type;location;lat;lon;timestamp;P1;durP1;ratioP1;P2;durP2;ratioP2
71164;SDS011;58859;55.132;-1.586;2022-07-29T00:02:07;5.13;;;1.47;;
71164;SDS011;58859;55.132;-1.586;2022-07-29T00:04:36;4.13;;;1.10;;
71164;SDS011;58859;55.132;-1.586;2022-07-29T00:07:02;5.88;;;1.55;;
71164;SDS011;58859;55.132;-1.586;2022-07-29T00:09:28;1.90;;;1.27;;
71164;SDS011;58859;55.132;-1.586;2022-07-29T00:11:54;2.13;;;0.97;;
71164;SDS011;58859;55.132;-1.586;2022-07-29T00:14:20;6.30;;;1.27;;
71164;SDS011;58859;55.132;-1.586;2022-07-29T00:16:46;4.57;;;1.23;;
71164;SDS011;58859;55.132;-1.586;2022-07-29T00:19:11;5.67;;;1.40;;
71164;SDS011;58859;55.132;-1.586;2022-07-29T00:21:36;4.05;;;1.15;;
71164;SDS011;58859;55.132;-1.586;2022-07-29T00:24:02;2.77;;;1.40;;
71164;SDS011;58859;55.132;-1.586;2022-07-29T00:26:28;2.33;;;1.30;;
71164;SDS011;58859;55.132;-1.586;2022-07-29T00:28:57;3.10;;;1.50;;
71164;SDS011;58859;55.132;-1.586;2022-07-29T00:31:23;1.87;;;1.10;;
71164;SDS011;58859;55.132;-1.586;2022-07-29T00:33:48;4.47;;;1.30;;
71164;SDS011;58859;55.132;-1.586;2022-07-29T00:36:14;3.73;;;1.40;;
71164;SDS011;58859;55.132;-1.586;2022-07-29T00:38:39;3.33;;;1.20;;
71164;SDS011;58859;55.132;-1.586;2022-07-29T00:41:09;3.83;;;1.30;;
71164;SDS011;58859;55.132;-1.586;2022-07-29T00:43:34;4.97;;;1.50;;
71164;SDS011;58859;55.132;-1.586;2022-07-29T00:46:00;2.28;;;1.25;;
71164;SDS011;58859;55.132;-1.586;2022-07-29T00:48:25;3.90;;;1.10;;
71164;SDS011;58859;55.132;-1.586;2022-07-29T00:50:51;5.63;;;1.30;;
71164;SDS011;58859;55.132;-1.586;2022-07-29T00:53:16;2.10;;;1.40;;
71164;SDS011;58859;55.132;-1.586;2022-07-29T00:55:42;3.03;;;1.10;;
71164;SDS011;58859;55.132;-1.586;2022-07-29T00:58:07;3.03;;;1.53;;
71164;SDS011;58859;55.132;-1.586;2022-07-29T01:00:33;2.97;;;1.35;;
71164;SDS011;58859;55.132;-1.586;2022-07-29T01:02:59;3.10;;;1.00;;
71164;SDS011;58859;55.132;-1.586;2022-07-29T01:05:28;2.35;;;1.15;;
71164;SDS011;58859;55.132;-1.586;2022-07-29T01:07:54;2.33;;;1.00;;
71164;SDS011;58859;55.132;-1.586;2022-07-29T01:10:20;5.07;;;1.30;;
71164;SDS011;58859;55.132;-1.586;2022-07-29T01:12:47;2.75;;;0.90;;
71164;SDS011;58859;55.132;-1.586;2022-07-29T01:15:14;2.65;;;1.10;;
71164;SDS011;58859;55.132;-1.586;2022-07-29T01:20:20;1.75;;;0.95;;
71164;SDS011;58859;55.132;-1.586;2022-07-29T01:28:52;2.53;;;1.05;;
71164;SDS011;58859;55.132;-1.586;2022-07-29T01:31:48;2.97;;;1.40;;
71164;SDS011;58859;55.132;-1.586;2022-07-29T01:37:35;4.00;;;1.42;;
71164;SDS011;58859;55.132;-1.586;2022-07-29T01:40:29;4.38;;;1.38;;
71164;SDS011;58859;55.132;-1.586;2022-07-29T01:42:59;2.55;;;1.30;;
71164;SDS011;58859;55.132;-1.586;2022-07-29T01:53:22;4.53;;;1.63;;
71164;SDS011;58859;55.132;-1.586;2022-07-29T01:55:54;3.97;;;1.58;;
71164;SDS011;58859;55.132;-1.586;2022-07-29T01:58:20;4.07;;;1.33;;
71164;SDS011;58859;55.132;-1.586;2022-07-29T02:00:46;4.72;;;1.60;;
71164;SDS011;58859;55.132;-1.586;2022-07-29T02:03:13;3.42;;;1.60;;
71164;SDS011;58859;55.132;-1.586;2022-07-29T02:05:41;2.47;;;1.70;;
71164;SDS011;58859;55.132;-1.586;2022-07-29T02:08:07;6.70;;;2.28;;
71164;SDS011;58859;55.132;-1.586;2022-07-29T02:10:34;3.83;;;1.90;;
71164;SDS011;58859;55.132;-1.586;2022-07-29T02:13:00;3.97;;;2.30;;
71164;SDS011;58859;55.132;-1.586;2022-07-29T02:15:28;4.97;;;2.25;;
71164;SDS011;58859;55.132;-1.586;2022-07-29T02:17:56;4.80;;;2.50;;
71164;SDS011;58859;55.132;-1.586;2022-07-29T02:20:24;4.25;;;2.30;;
71164;SDS011;58859;55.132;-1.586;2022-07-29T02:22:50;4.33;;;2.57;;
71164;SDS011;58859;55.132;-1.586;2022-07-29T02:25:17;4.13;;;2.30;;
71164;SDS011;58859;55.132;-1.586;2022-07-29T02:27:43;3.67;;;2.20;;
71164;SDS011;58859;55.132;-1.586;2022-07-29T02:30:09;4.95;;;2.20;;
71164;SDS011;58859;55.132;-1.586;2022-07-29T02:32:36;2.83;;;1.60;;
71164;SDS011;58859;55.132;-1.586;2022-07-29T02:35:03;3.40;;;1.50;;
71164;SDS011;58859;55.132;-1.586;2022-07-29T02:37:30;2.70;;;1.25;;
71164;SDS011;58859;55.132;-1.586;2022-07-29T02:39:56;5.95;;;2.50;;
71164;SDS011;58859;55.132;-1.586;2022-07-29T02:42:22;3.97;;;1.65;;
71164;SDS011;58859;55.132;-1.586;2022-07-29T02:44:48;4.10;;;1.50;;
71164;SDS011;58859;55.132;-1.586;2022-07-29T02:47:20;2.42;;;1.25;;
71164;SDS011;58859;55.132;-1.586;2022-07-29T02:49:56;3.60;;;1.58;;
71164;SDS011;58859;55.132;-1.586;2022-07-29T02:52:35;2.17;;;1.48;;
71164;SDS011;58859;55.132;-1.586;2022-07-29T02:55:10;2.23;;;1.30;;
71164;SDS011;58859;55.132;-1.586;2022-07-29T02:57:47;1.80;;;1.45;;
71164;SDS011;58859;55.132;-1.586;2022-07-29T03:00:16;4.32;;;1.70;;
71164;SDS011;58859;55.132;-1.586;2022-07-29T03:02:44;2.93;;;1.37;;
71164;SDS011;58859;55.132;-1.586;2022-07-29T03:05:15;2.35;;;1.67;;
71164;SDS011;58859;55.132;-1.586;2022-07-29T03:07:43;4.85;;;1.50;;
71164;SDS011;58859;55.132;-1.586;2022-07-29T03:10:11;3.03;;;1.38;;
71164;SDS011;58859;55.132;-1.586;2022-07-29T03:12:38;2.00;;;1.20;;
71164;SDS011;58859;55.132;-1.586;2022-07-29T03:15:03;6.40;;;1.30;;
71164;SDS011;58859;55.132;-1.586;2022-07-29T03:17:30;2.75;;;1.35;;
71164;SDS011;58859;55.132;-1.586;2022-07-29T03:19:56;3.60;;;1.20;;
71164;SDS011;58859;55.132;-1.586;2022-07-29T03:22:23;1.50;;;1.25;;
71164;SDS011;58859;55.132;-1.586;2022-07-29T03:24:49;2.35;;;1.50;;
71164;SDS011;58859;55.132;-1.586;2022-07-29T03:27:14;4.03;;;1.50;;
71164;SDS011;58859;55.132;-1.586;2022-07-29T03:29:39;4.75;;;1.80;;
71164;SDS011;58859;55.132;-1.586;2022-07-29T03:32:05;3.17;;;1.70;;
71164;SDS011;58859;55.132;-1.586;2022-07-29T03:34:31;5.37;;;1.87;;
71164;SDS011;58859;55.132;-1.586;2022-07-29T03:36:56;5.75;;;1.77;;
71164;SDS011;58859;55.132;-1.586;2022-07-29T03:39:23;2.30;;;1.90;;
71164;SDS011;58859;55.132;-1.586;2022-07-29T03:41:51;1.90;;;1.80;;
71164;SDS011;58859;55.132;-1.586;2022-07-29T03:44:18;3.72;;;1.98;;
71164;SDS011;58859;55.132;-1.586;2022-07-29T03:46:46;3.85;;;1.70;;
71164;SDS011;58859;55.132;-1.586;2022-07-29T03:49:14;3.50;;;1.57;;
71164;SDS011;58859;55.132;-1.586;2022-07-29T03:51:40;3.72;;;1.80;;
71164;SDS011;58859;55.132;-1.586;2022-07-29T03:54:05;2.33;;;2.00;;
71164;SDS011;58859;55.132;-1.586;2022-07-29T03:56:32;4.40;;;2.85;;
71164;SDS011;58859;55.132;-1.586;2022-07-29T03:58:59;7.05;;;1.95;;
71164;SDS011;58859;55.132;-1.586;2022-07-29T04:01:26;5.65;;;1.95;;
71164;SDS011;58859;55.132;-1.586;2022-07-29T04:03:53;4.25;;;2.05;;
71164;SDS011;58859;55.132;-1.586;2022-07-29T04:06:18;3.75;;;1.83;;
71164;SDS011;58859;55.132;-1.586;2022-07-29T04:08:44;3.17;;;1.57;;
71164;SDS011;58859;55.132;-1.586;2022-07-29T04:11:09;3.63;;;2.00;;
71164;SDS011;58859;55.132;-1.586;2022-07-29T04:13:34;4.73;;;2.03;;
71164;SDS011;58859;55.132;-1.586;2022-07-29T04:16:00;3.03;;;1.60;;
71164;SDS011;58859;55.132;-1.586;2022-07-29T04:18:25;5.00;;;1.60;;
71164;SDS011;58859;55.132;-1.586;2022-07-29T04:20:51;4.87;;;1.70;;
71164;SDS011;58859;55.132;-1.586;2022-07-29T04:23:16;4.33;;;1.37;;
71164;SDS011;58859;55.132;-1.586;2022-07-29T04:25:42;5.90;;;1.93;;
71164;SDS011;58859;55.132;-1.586;2022-07-29T04:28:08;3.10;;;1.60;;
71164;SDS011;58859;55.132;-1.586;2022-07-29T04:30:34;2.53;;;1.30;;
71164;SDS011;58859;55.132;-1.586;2022-07-29T04:33:01;3.47;;;1.42;;
71164;SDS011;58859;55.132;-1.586;2022-07-29T04:35:27;2.22;;;1.40;;
71164;SDS011;58859;55.132;-1.586;2022-07-29T04:37:54;2.17;;;1.73;;
71164;SDS011;58859;55.132;-1.586;2022-07-29T04:40:19;6.35;;;1.92;;
71164;SDS011;58859;55.132;-1.586;2022-07-29T04:42:45;6.80;;;1.80;;
71164;SDS011;58859;55.132;-1.586;2022-07-29T04:45:11;2.20;;;1.77;;
71164;SDS011;58859;55.132;-1.586;2022-07-29T04:47:36;4.70;;;1.60;;
71164;SDS011;58859;55.132;-1.586;2022-07-29T04:50:02;2.90;;;2.07;;
71164;SDS011;58859;55.132;-1.586;2022-07-29T04:52:27;3.33;;;1.90;;
71164;SDS011;58859;55.132;-1.586;2022-07-29T04:54:53;3.50;;;2.13;;
71164;SDS011;58859;55.132;-1.586;2022-07-29T04:57:18;3.90;;;1.60;;
71164;SDS011;58859;55.132;-1.586;2022-07-29T04:59:44;2.33;;;1.80;;
71164;SDS011;58859;55.132;-1.586;2022-07-29T05:02:09;2.33;;;1.27;;
71164;SDS011;58859;55.132;-1.586;2022-07-29T05:04:35;3.27;;;1.70;;
71164;SDS011;58859;55.132;-1.586;2022-07-29T05:07:00;3.63;;;1.70;;
71164;SDS011;58859;55.132;-1.586;2022-07-29T05:09:26;4.27;;;1.80;;
71164;SDS011;58859;55.132;-1.586;2022-07-29T05:11:52;2.78;;;1.75;;
71164;SDS011;58859;55.132;-1.586;2022-07-29T05:14:18;3.13;;;1.90;;
71164;SDS011;58859;55.132;-1.586;2022-07-29T05:16:43;3.20;;;1.70;;
71164;SDS011;58859;55.132;-1.586;2022-07-29T05:19:09;2.40;;;2.13;;
71164;SDS011;58859;55.132;-1.586;2022-07-29T05:21:34;5.80;;;2.00;;
71164;SDS011;58859;55.132;-1.586;2022-07-29T05:23:59;3.03;;;1.83;;
71164;SDS011;58859;55.132;-1.586;2022-07-29T05:26:25;2.40;;;1.42;;
71164;SDS011;58859;55.132;-1.586;2022-07-29T05:28:51;8.30;;;2.00;;
71164;SDS011;58859;55.132;-1.586;2022-07-29T05:31:17;4.32;;;2.10;;
71164;SDS011;58859;55.132;-1.586;2022-07-29T05:33:42;4.13;;;1.80;;
71164;SDS011;58859;55.132;-1.586;2022-07-29T05:36:08;10.38;;;2.80;;
71164;SDS011;58859;55.132;-1.586;2022-07-29T05:38:36;5.93;;;2.15;;
71164;SDS011;58859;55.132;-1.586;2022-07-29T05:41:02;2.33;;;1.80;;
71164;SDS011;58859;55.132;-1.586;2022-07-29T05:43:28;3.58;;;1.58;;
71164;SDS011;58859;55.132;-1.586;2022-07-29T05:45:54;1.88;;;1.63;;
71164;SDS011;58859;55.132;-1.586;2022-07-29T05:48:20;4.57;;;2.05;;
71164;SDS011;58859;55.132;-1.586;2022-07-29T05:50:45;2.90;;;1.70;;
71164;SDS011;58859;55.132;-1.586;2022-07-29T05:53:11;3.22;;;2.13;;
71164;SDS011;58859;55.132;-1.586;2022-07-29T05:55:36;1.73;;;1.63;;
71164;SDS011;58859;55.132;-1.586;2022-07-29T05:58:02;3.07;;;2.13;;
71164;SDS011;58859;55.132;-1.586;2022-07-29T06:00:27;5.07;;;2.00;;
71164;SDS011;58859;55.132;-1.586;2022-07-29T06:02:53;2.90;;;1.80;;
71164;SDS011;58859;55.132;-1.586;2022-07-29T06:05:18;4.20;;;1.70;;
71164;SDS011;58859;55.132;-1.586;2022-07-29T06:07:44;5.77;;;1.87;;
71164;SDS011;58859;55.132;-1.586;2022-07-29T06:10:09;1.67;;;1.27;;
71164;SDS011;58859;55.132;-1.586;2022-07-29T06:12:35;3.90;;;2.00;;
71164;SDS011;58859;55.132;-1.586;2022-07-29T06:15:01;3.43;;;1.67;;
71164;SDS011;58859;55.132;-1.586;2022-07-29T06:17:26;2.83;;;1.60;;
71164;SDS011;58859;55.132;-1.586;2022-07-29T06:19:52;2.67;;;1.43;;
71164;SDS011;58859;55.132;-1.586;2022-07-29T06:22:18;4.88;;;1.75;;
71164;SDS011;58859;55.132;-1.586;2022-07-29T06:24:43;4.20;;;2.00;;
71164;SDS011;58859;55.132;-1.586;2022-07-29T06:27:09;5.97;;;1.90;;
71164;SDS011;58859;55.132;-1.586;2022-07-29T06:29:35;3.53;;;2.25;;
71164;SDS011;58859;55.132;-1.586;2022-07-29T06:32:01;4.45;;;2.72;;
71164;SDS011;58859;55.132;-1.586;2022-07-29T06:34:27;5.03;;;2.30;;
71164;SDS011;58859;55.132;-1.586;2022-07-29T06:36:53;5.28;;;1.90;;
71164;SDS011;58859;55.132;-1.586;2022-07-29T06:39:18;3.60;;;2.27;;
71164;SDS011;58859;55.132;-1.586;2022-07-29T06:41:48;5.63;;;3.10;;
71164;SDS011;58859;55.132;-1.586;2022-07-29T06:44:14;4.45;;;2.20;;
71164;SDS011;58859;55.132;-1.586;2022-07-29T06:46:40;4.63;;;2.20;;
71164;SDS011;58859;55.132;-1.586;2022-07-29T06:49:06;6.23;;;2.80;;
71164;SDS011;58859;55.132;-1.586;2022-07-29T06:51:32;4.07;;;2.42;;
71164;SDS011;58859;55.132;-1.586;2022-07-29T06:53:57;6.20;;;2.40;;
71164;SDS011;58859;55.132;-1.586;2022-07-29T06:56:23;4.20;;;2.55;;
71164;SDS011;58859;55.132;-1.586;2022-07-29T06:58:49;5.33;;;2.53;;
71164;SDS011;58859;55.132;-1.586;2022-07-29T07:01:15;5.97;;;3.17;;
71164;SDS011;58859;55.132;-1.586;2022-07-29T07:03:41;5.47;;;2.95;;
71164;SDS011;58859;55.132;-1.586;2022-07-29T07:06:07;8.10;;;3.63;;
71164;SDS011;58859;55.132;-1.586;2022-07-29T07:08:32;5.40;;;2.97;;
71164;SDS011;58859;55.132;-1.586;2022-07-29T07:10:58;12.23;;;3.53;;
71164;SDS011;58859;55.132;-1.586;2022-07-29T07:13:23;6.10;;;2.67;;
71164;SDS011;58859;55.132;-1.586;2022-07-29T07:15:49;4.03;;;2.00;;
71164;SDS011;58859;55.132;-1.586;2022-07-29T07:18:16;7.00;;;2.55;;
71164;SDS011;58859;55.132;-1.586;2022-07-29T07:20:42;4.10;;;2.33;;
71164;SDS011;58859;55.132;-1.586;2022-07-29T07:23:08;3.42;;;2.42;;
71164;SDS011;58859;55.132;-1.586;2022-07-29T07:25:34;3.08;;;2.28;;
71164;SDS011;58859;55.132;-1.586;2022-07-29T07:27:59;2.92;;;2.50;;
71164;SDS011;58859;55.132;-1.586;2022-07-29T07:30:25;4.40;;;2.67;;
71164;SDS011;58859;55.132;-1.586;2022-07-29T07:32:51;3.83;;;3.20;;
71164;SDS011;58859;55.132;-1.586;2022-07-29T07:35:16;3.35;;;2.47;;
71164;SDS011;58859;55.132;-1.586;2022-07-29T07:37:42;2.47;;;2.00;;
71164;SDS011;58859;55.132;-1.586;2022-07-29T07:40:08;2.85;;;2.30;;
71164;SDS011;58859;55.132;-1.586;2022-07-29T07:42:36;5.85;;;3.13;;
71164;SDS011;58859;55.132;-1.586;2022-07-29T07:45:02;6.97;;;2.55;;
71164;SDS011;58859;55.132;-1.586;2022-07-29T07:47:27;5.33;;;1.80;;
71164;SDS011;58859;55.132;-1.586;2022-07-29T07:49:53;3.60;;;2.07;;
71164;SDS011;58859;55.132;-1.586;2022-07-29T07:52:19;3.85;;;2.28;;
71164;SDS011;58859;55.132;-1.586;2022-07-29T07:54:46;4.97;;;2.50;;
71164;SDS011;58859;55.132;-1.586;2022-07-29T07:57:12;5.23;;;2.90;;
71164;SDS011;58859;55.132;-1.586;2022-07-29T07:59:38;4.30;;;2.35;;
71164;SDS011;58859;55.132;-1.586;2022-07-29T08:02:04;2.75;;;2.10;;
71164;SDS011;58859;55.132;-1.586;2022-07-29T08:04:30;2.05;;;1.50;;
71164;SDS011;58859;55.132;-1.586;2022-07-29T08:06:56;3.73;;;2.00;;
71164;SDS011;58859;55.132;-1.586;2022-07-29T08:09:22;2.85;;;2.13;;
71164;SDS011;58859;55.132;-1.586;2022-07-29T08:11:48;2.75;;;1.88;;
71164;SDS011;58859;55.132;-1.586;2022-07-29T08:14:14;6.37;;;2.53;;
71164;SDS011;58859;55.132;-1.586;2022-07-29T08:16:39;6.00;;;2.03;;
71164;SDS011;58859;55.132;-1.586;2022-07-29T08:19:06;3.05;;;2.75;;
71164;SDS011;58859;55.132;-1.586;2022-07-29T08:21:32;5.13;;;2.37;;
71164;SDS011;58859;55.132;-1.586;2022-07-29T08:23:57;7.27;;;2.87;;
71164;SDS011;58859;55.132;-1.586;2022-07-29T08:26:42;4.55;;;1.83;;
71164;SDS011;58859;55.132;-1.586;2022-07-29T08:29:08;3.70;;;1.80;;
71164;SDS011;58859;55.132;-1.586;2022-07-29T08:31:34;3.08;;;1.48;;
71164;SDS011;58859;55.132;-1.586;2022-07-29T08:34:00;3.17;;;1.55;;
71164;SDS011;58859;55.132;-1.586;2022-07-29T08:36:27;4.80;;;1.40;;
71164;SDS011;58859;55.132;-1.586;2022-07-29T08:38:53;2.55;;;1.10;;
71164;SDS011;58859;55.132;-1.586;2022-07-29T08:41:19;2.07;;;1.17;;
71164;SDS011;58859;55.132;-1.586;2022-07-29T08:43:45;2.13;;;1.30;;
71164;SDS011;58859;55.132;-1.586;2022-07-29T08:46:11;2.15;;;1.25;;
71164;SDS011;58859;55.132;-1.586;2022-07-29T08:48:36;2.20;;;1.70;;
71164;SDS011;58859;55.132;-1.586;2022-07-29T08:51:02;1.47;;;0.90;;
71164;SDS011;58859;55.132;-1.586;2022-07-29T08:53:28;2.47;;;0.90;;
71164;SDS011;58859;55.132;-1.586;2022-07-29T08:55:54;2.25;;;1.58;;
71164;SDS011;58859;55.132;-1.586;2022-07-29T08:58:21;2.70;;;1.67;;
71164;SDS011;58859;55.132;-1.586;2022-07-29T09:00:56;2.08;;;1.50;;
71164;SDS011;58859;55.132;-1.586;2022-07-29T09:03:23;2.17;;;1.70;;
71164;SDS011;58859;55.132;-1.586;2022-07-29T09:05:49;3.08;;;2.30;;
71164;SDS011;58859;55.132;-1.586;2022-07-29T09:08:16;3.78;;;1.42;;
71164;SDS011;58859;55.132;-1.586;2022-07-29T09:10:42;1.30;;;1.20;;
71164;SDS011;58859;55.132;-1.586;2022-07-29T09:13:08;1.90;;;1.50;;
71164;SDS011;58859;55.132;-1.586;2022-07-29T09:15:33;4.43;;;2.13;;
71164;SDS011;58859;55.132;-1.586;2022-07-29T09:17:59;3.50;;;1.55;;
71164;SDS011;58859;55.132;-1.586;2022-07-29T09:20:25;4.82;;;2.00;;
71164;SDS011;58859;55.132;-1.586;2022-07-29T09:22:52;4.97;;;1.25;;
71164;SDS011;58859;55.132;-1.586;2022-07-29T09:25:39;3.13;;;1.52;;
71164;SDS011;58859;55.132;-1.586;2022-07-29T09:28:13;3.72;;;2.25;;
71164;SDS011;58859;55.132;-1.586;2022-07-29T09:30:55;2.28;;;1.20;;
71164;SDS011;58859;55.132;-1.586;2022-07-29T09:33:23;1.85;;;1.23;;
71164;SDS011;58859;55.132;-1.586;2022-07-29T09:36:00;2.67;;;1.30;;
71164;SDS011;58859;55.132;-1.586;2022-07-29T09:38:28;2.97;;;1.20;;
71164;SDS011;58859;55.132;-1.586;2022-07-29T09:40:57;2.17;;;1.43;;
71164;SDS011;58859;55.132;-1.586;2022-07-29T09:43:23;3.72;;;1.23;;
71164;SDS011;58859;55.132;-1.586;2022-07-29T09:45:49;3.20;;;1.40;;
71164;SDS011;58859;55.132;-1.586;2022-07-29T09:48:15;4.22;;;1.70;;
71164;SDS011;58859;55.132;-1.586;2022-07-29T09:50:43;3.05;;;1.63;;
71164;SDS011;58859;55.132;-1.586;2022-07-29T09:53:09;1.25;;;1.15;;
71164;SDS011;58859;55.132;-1.586;2022-07-29T09:55:48;4.68;;;1.30;;
71164;SDS011;58859;55.132;-1.586;2022-07-29T09:58:15;2.55;;;1.42;;
71164;SDS011;58859;55.132;-1.586;2022-07-29T10:00:45;1.30;;;1.20;;
71164;SDS011;58859;55.132;-1.586;2022-07-29T10:03:11;4.57;;;1.65;;
71164;SDS011;58859;55.132;-1.586;2022-07-29T10:05:37;1.98;;;1.35;;
71164;SDS011;58859;55.132;-1.586;2022-07-29T10:08:04;2.25;;;1.27;;
71164;SDS011;58859;55.132;-1.586;2022-07-29T10:10:36;1.15;;;1.15;;
71164;SDS011;58859;55.132;-1.586;2022-07-29T10:13:06;2.28;;;1.30;;
71164;SDS011;58859;55.132;-1.586;2022-07-29T10:15:35;3.33;;;1.00;;
71164;SDS011;58859;55.132;-1.586;2022-07-29T10:18:04;1.08;;;1.00;;
71164;SDS011;58859;55.132;-1.586;2022-07-29T10:20:30;1.73;;;1.02;;
71164;SDS011;58859;55.132;-1.586;2022-07-29T10:22:56;1.73;;;1.20;;
71164;SDS011;58859;55.132;-1.586;2022-07-29T10:25:22;3.05;;;1.50;;
71164;SDS011;58859;55.132;-1.586;2022-07-29T10:27:48;2.80;;;1.10;;
71164;SDS011;58859;55.132;-1.586;2022-07-29T10:30:16;2.15;;;1.20;;
71164;SDS011;58859;55.132;-1.586;2022-07-29T10:32:54;1.52;;;1.42;;
71164;SDS011;58859;55.132;-1.586;2022-07-29T10:43:58;1.25;;;1.00;;
71164;SDS011;58859;55.132;-1.586;2022-07-29T10:46:25;1.95;;;0.98;;
71164;SDS011;58859;55.132;-1.586;2022-07-29T10:51:52;2.95;;;0.90;;
71164;SDS011;58859;55.132;-1.586;2022-07-29T10:59:48;1.50;;;1.27;;
71164;SDS011;58859;55.132;-1.586;2022-07-29T11:07:28;2.60;;;1.40;;
71164;SDS011;58859;55.132;-1.586;2022-07-29T11:15:04;2.13;;;1.53;;
71164;SDS011;58859;55.132;-1.586;2022-07-29T11:18:16;4.18;;;1.50;;
71164;SDS011;58859;55.132;-1.586;2022-07-29T11:23:22;2.10;;;1.90;;
71164;SDS011;58859;55.132;-1.586;2022-07-29T11:29:05;4.07;;;1.80;;
71164;SDS011;58859;55.132;-1.586;2022-07-29T11:31:35;2.95;;;1.25;;
71164;SDS011;58859;55.132;-1.586;2022-07-29T11:39:35;2.75;;;1.60;;
71164;SDS011;58859;55.132;-1.586;2022-07-29T11:47:30;4.25;;;2.10;;
71164;SDS011;58859;55.132;-1.586;2022-07-29T11:49:56;3.28;;;1.60;;
71164;SDS011;58859;55.132;-1.586;2022-07-29T11:52:22;2.90;;;2.10;;
71164;SDS011;58859;55.132;-1.586;2022-07-29T11:54:49;5.22;;;2.42;;
71164;SDS011;58859;55.132;-1.586;2022-07-29T11:57:18;3.85;;;2.35;;
71164;SDS011;58859;55.132;-1.586;2022-07-29T11:59:45;2.38;;;2.10;;
71164;SDS011;58859;55.132;-1.586;2022-07-29T12:02:11;3.33;;;2.85;;
71164;SDS011;58859;55.132;-1.586;2022-07-29T12:04:50;4.97;;;2.10;;
71164;SDS011;58859;55.132;-1.586;2022-07-29T12:07:16;3.13;;;2.45;;
71164;SDS011;58859;55.132;-1.586;2022-07-29T12:09:52;3.45;;;1.90;;
71164;SDS011;58859;55.132;-1.586;2022-07-29T12:12:18;5.75;;;2.30;;
71164;SDS011;58859;55.132;-1.586;2022-07-29T12:14:44;2.10;;;1.88;;
71164;SDS011;58859;55.132;-1.586;2022-07-29T12:19:54;2.17;;;1.90;;
71164;SDS011;58859;55.132;-1.586;2022-07-29T12:24:59;2.95;;;2.20;;
71164;SDS011;58859;55.132;-1.586;2022-07-29T12:27:26;2.05;;;1.80;;
71164;SDS011;58859;55.132;-1.586;2022-07-29T12:30:11;5.13;;;2.00;;
71164;SDS011;58859;55.132;-1.586;2022-07-29T12:32:39;2.03;;;1.70;;
71164;SDS011;58859;55.132;-1.586;2022-07-29T12:35:07;2.60;;;2.00;;
71164;SDS011;58859;55.132;-1.586;2022-07-29T12:37:35;4.03;;;1.90;;
71164;SDS011;58859;55.132;-1.586;2022-07-29T12:40:02;2.63;;;1.77;;
71164;SDS011;58859;55.132;-1.586;2022-07-29T12:42:29;3.75;;;1.70;;
71164;SDS011;58859;55.132;-1.586;2022-07-29T12:44:56;2.60;;;1.57;;
71164;SDS011;58859;55.132;-1.586;2022-07-29T12:47:21;2.78;;;1.50;;
71164;SDS011;58859;55.132;-1.586;2022-07-29T12:49:48;3.10;;;1.73;;
71164;SDS011;58859;55.132;-1.586;2022-07-29T12:52:27;3.05;;;1.65;;
71164;SDS011;58859;55.132;-1.586;2022-07-29T12:54:54;2.40;;;1.63;;
71164;SDS011;58859;55.132;-1.586;2022-07-29T12:57:20;3.65;;;1.92;;
71164;SDS011;58859;55.132;-1.586;2022-07-29T12:59:58;1.93;;;1.50;;
71164;SDS011;58859;55.132;-1.586;2022-07-29T13:02:29;3.60;;;1.50;;
71164;SDS011;58859;55.132;-1.586;2022-07-29T13:04:56;4.50;;;1.90;;
71164;SDS011;58859;55.132;-1.586;2022-07-29T13:07:26;2.13;;;1.43;;
71164;SDS011;58859;55.132;-1.586;2022-07-29T13:09:54;2.13;;;1.65;;
71164;SDS011;58859;55.132;-1.586;2022-07-29T13:12:34;3.30;;;1.90;;
71164;SDS011;58859;55.132;-1.586;2022-07-29T13:14:59;3.13;;;1.70;;
71164;SDS011;58859;55.132;-1.586;2022-07-29T13:17:25;3.60;;;1.85;;
71164;SDS011;58859;55.132;-1.586;2022-07-29T13:20:06;1.67;;;1.00;;
71164;SDS011;58859;55.132;-1.586;2022-07-29T13:22:34;2.63;;;1.70;;
71164;SDS011;58859;55.132;-1.586;2022-07-29T13:25:01;2.63;;;1.40;;
71164;SDS011;58859;55.132;-1.586;2022-07-29T13:27:28;3.70;;;2.03;;
71164;SDS011;58859;55.132;-1.586;2022-07-29T13:29:55;2.95;;;1.85;;
71164;SDS011;58859;55.132;-1.586;2022-07-29T13:32:22;2.13;;;1.77;;
71164;SDS011;58859;55.132;-1.586;2022-07-29T13:34:49;1.80;;;1.70;;
71164;SDS011;58859;55.132;-1.586;2022-07-29T13:37:15;2.90;;;1.87;;
71164;SDS011;58859;55.132;-1.586;2022-07-29T13:39:41;1.45;;;1.35;;
71164;SDS011;58859;55.132;-1.586;2022-07-29T13:42:07;3.13;;;1.57;;
71164;SDS011;58859;55.132;-1.586;2022-07-29T13:44:33;1.33;;;1.23;;
71164;SDS011;58859;55.132;-1.586;2022-07-29T13:46:59;2.93;;;1.47;;
71164;SDS011;58859;55.132;-1.586;2022-07-29T13:49:25;1.50;;;1.40;;
71164;SDS011;58859;55.132;-1.586;2022-07-29T13:51:50;2.63;;;1.70;;
71164;SDS011;58859;55.132;-1.586;2022-07-29T13:54:16;4.68;;;1.92;;
71164;SDS011;58859;55.132;-1.586;2022-07-29T13:56:42;3.73;;;1.77;;
71164;SDS011;58859;55.132;-1.586;2022-07-29T13:59:07;2.83;;;1.63;;
71164;SDS011;58859;55.132;-1.586;2022-07-29T14:01:34;3.50;;;1.60;;
71164;SDS011;58859;55.132;-1.586;2022-07-29T14:03:59;4.28;;;1.70;;
71164;SDS011;58859;55.132;-1.586;2022-07-29T14:06:25;4.43;;;1.80;;
71164;SDS011;58859;55.132;-1.586;2022-07-29T14:08:51;3.63;;;2.03;;
71164;SDS011;58859;55.132;-1.586;2022-07-29T14:11:16;4.40;;;1.40;;
71164;SDS011;58859;55.132;-1.586;2022-07-29T14:13:42;1.30;;;1.03;;
71164;SDS011;58859;55.132;-1.586;2022-07-29T14:16:07;5.10;;;1.57;;
71164;SDS011;58859;55.132;-1.586;2022-07-29T14:18:33;9.20;;;2.07;;
71164;SDS011;58859;55.132;-1.586;2022-07-29T14:20:58;3.37;;;1.80;;
71164;SDS011;58859;55.132;-1.586;2022-07-29T14:23:24;4.73;;;1.90;;
71164;SDS011;58859;55.132;-1.586;2022-07-29T14:25:49;4.60;;;2.33;;
71164;SDS011;58859;55.132;-1.586;2022-07-29T14:28:15;5.13;;;1.80;;
71164;SDS011;58859;55.132;-1.586;2022-07-29T14:30:40;2.73;;;1.90;;
71164;SDS011;58859;55.132;-1.586;2022-07-29T14:33:06;5.97;;;2.88;;
71164;SDS011;58859;55.132;-1.586;2022-07-29T14:35:31;3.87;;;1.83;;
71164;SDS011;58859;55.132;-1.586;2022-07-29T14:37:57;2.03;;;1.67;;
71164;SDS011;58859;55.132;-1.586;2022-07-29T14:40:22;4.13;;;2.30;;
71164;SDS011;58859;55.132;-1.586;2022-07-29T14:42:48;4.68;;;2.33;;
71164;SDS011;58859;55.132;-1.586;2022-07-29T14:45:13;6.37;;;2.67;;
71164;SDS011;58859;55.132;-1.586;2022-07-29T14:47:39;5.57;;;2.67;;
71164;SDS011;58859;55.132;-1.586;2022-07-29T14:50:04;6.22;;;2.65;;
71164;SDS011;58859;55.132;-1.586;2022-07-29T14:52:31;4.43;;;2.60;;
71164;SDS011;58859;55.132;-1.586;2022-07-29T14:54:56;4.82;;;2.80;;
71164;SDS011;58859;55.132;-1.586;2022-07-29T14:57:22;4.10;;;2.13;;
71164;SDS011;58859;55.132;-1.586;2022-07-29T14:59:47;5.00;;;2.57;;
71164;SDS011;58859;55.132;-1.586;2022-07-29T15:02:13;5.90;;;2.70;;
71164;SDS011;58859;55.132;-1.586;2022-07-29T15:04:38;7.13;;;2.88;;
71164;SDS011;58859;55.132;-1.586;2022-07-29T15:07:04;5.20;;;2.90;;
71164;SDS011;58859;55.132;-1.586;2022-07-29T15:09:29;7.47;;;2.93;;
71164;SDS011;58859;55.132;-1.586;2022-07-29T15:11:55;4.40;;;2.28;;
71164;SDS011;58859;55.132;-1.586;2022-07-29T15:14:20;6.32;;;2.80;;
71164;SDS011;58859;55.132;-1.586;2022-07-29T15:16:46;5.43;;;2.17;;
71164;SDS011;58859;55.132;-1.586;2022-07-29T15:19:11;4.70;;;2.20;;
71164;SDS011;58859;55.132;-1.586;2022-07-29T15:21:37;10.98;;;1.92;;
71164;SDS011;58859;55.132;-1.586;2022-07-29T15:24:02;3.30;;;1.70;;
71164;SDS011;58859;55.132;-1.586;2022-07-29T15:26:28;2.05;;;1.52;;
71164;SDS011;58859;55.132;-1.586;2022-07-29T15:28:53;4.20;;;1.70;;
71164;SDS011;58859;55.132;-1.586;2022-07-29T15:31:21;3.95;;;1.65;;
71164;SDS011;58859;55.132;-1.586;2022-07-29T15:33:46;1.80;;;1.63;;
71164;SDS011;58859;55.132;-1.586;2022-07-29T15:36:12;4.88;;;2.40;;
71164;SDS011;58859;55.132;-1.586;2022-07-29T15:38:38;7.77;;;2.23;;
71164;SDS011;58859;55.132;-1.586;2022-07-29T15:41:05;3.05;;;2.28;;
71164;SDS011;58859;55.132;-1.586;2022-07-29T15:43:31;5.35;;;2.70;;